sensor_id;sensor_type;location;lat;lon;timestamp;P1;durP1;ratioP1;P2;durP2;ratioP2
52470;SDS011;38382;53.160;7.026;2022-11-15T00:00:17;30.13;;;17.25;;
52470;SDS011;38382;53.160;7.026;2022-11-15T00:02:43;30.00;;;17.92;;
52470;SDS011;38382;53.160;7.026;2022-11-15T00:05:09;31.63;;;17.95;;
52470;SDS011;38382;53.160;7.026;2022-11-15T00:07:34;30.23;;;17.48;;
52470;SDS011;38382;53.160;7.026;2022-11-15T00:10:00;30.25;;;17.33;;
52470;SDS011;38382;53.160;7.026;2022-11-15T00:12:27;31.55;;;18.65;;
52470;SDS011;38382;53.160;7.026;2022-11-15T00:14:53;29.70;;;17.83;;
52470;SDS011;38382;53.160;7.026;2022-11-15T00:17:19;26.83;;;17.05;;
52470;SDS011;38382;53.160;7.026;2022-11-15T00:19:45;26.75;;;16.92;;
52470;SDS011;38382;53.160;7.026;2022-11-15T00:22:10;27.85;;;16.17;;
52470;SDS011;38382;53.160;7.026;2022-11-15T00:24:36;27.38;;;16.40;;
52470;SDS011;38382;53.160;7.026;2022-11-15T00:27:02;27.98;;;17.58;;
52470;SDS011;38382;53.160;7.026;2022-11-15T00:29:28;28.85;;;16.25;;
52470;SDS011;38382;53.160;7.026;2022-11-15T00:31:53;29.40;;;17.70;;
52470;SDS011;38382;53.160;7.026;2022-11-15T00:34:19;27.85;;;16.85;;
52470;SDS011;38382;53.160;7.026;2022-11-15T00:36:45;26.45;;;17.48;;
52470;SDS011;38382;53.160;7.026;2022-11-15T00:39:10;27.48;;;16.30;;
52470;SDS011;38382;53.160;7.026;2022-11-15T00:41:36;26.15;;;16.85;;
52470;SDS011;38382;53.160;7.026;2022-11-15T00:44:02;26.70;;;16.15;;
52470;SDS011;38382;53.160;7.026;2022-11-15T00:46:28;27.23;;;16.70;;
52470;SDS011;38382;53.160;7.026;2022-11-15T00:48:54;26.55;;;16.30;;
52470;SDS011;38382;53.160;7.026;2022-11-15T00:51:19;27.65;;;16.48;;
52470;SDS011;38382;53.160;7.026;2022-11-15T00:53:45;25.33;;;16.27;;
52470;SDS011;38382;53.160;7.026;2022-11-15T00:56:11;27.00;;;16.40;;
52470;SDS011;38382;53.160;7.026;2022-11-15T00:58:36;28.08;;;15.43;;
52470;SDS011;38382;53.160;7.026;2022-11-15T01:01:09;26.52;;;15.98;;
52470;SDS011;38382;53.160;7.026;2022-11-15T01:03:36;25.60;;;15.77;;
52470;SDS011;38382;53.160;7.026;2022-11-15T01:06:04;25.23;;;15.02;;
52470;SDS011;38382;53.160;7.026;2022-11-15T01:08:30;26.95;;;15.80;;
52470;SDS011;38382;53.160;7.026;2022-11-15T01:11:00;27.27;;;16.05;;
52470;SDS011;38382;53.160;7.026;2022-11-15T01:13:31;24.95;;;15.45;;
52470;SDS011;38382;53.160;7.026;2022-11-15T01:15:57;24.70;;;15.27;;
52470;SDS011;38382;53.160;7.026;2022-11-15T01:18:23;24.15;;;15.00;;
52470;SDS011;38382;53.160;7.026;2022-11-15T01:20:49;26.20;;;15.30;;
52470;SDS011;38382;53.160;7.026;2022-11-15T01:23:15;24.95;;;15.65;;
52470;SDS011;38382;53.160;7.026;2022-11-15T01:25:41;28.00;;;17.23;;
52470;SDS011;38382;53.160;7.026;2022-11-15T01:28:07;24.77;;;16.50;;
52470;SDS011;38382;53.160;7.026;2022-11-15T01:30:32;29.42;;;17.05;;
52470;SDS011;38382;53.160;7.026;2022-11-15T01:32:58;35.72;;;20.05;;
52470;SDS011;38382;53.160;7.026;2022-11-15T01:35:24;30.50;;;19.38;;
52470;SDS011;38382;53.160;7.026;2022-11-15T01:37:50;33.05;;;20.15;;
52470;SDS011;38382;53.160;7.026;2022-11-15T01:40:15;30.23;;;18.42;;
52470;SDS011;38382;53.160;7.026;2022-11-15T01:42:41;31.48;;;18.70;;
52470;SDS011;38382;53.160;7.026;2022-11-15T01:45:11;28.67;;;18.42;;
52470;SDS011;38382;53.160;7.026;2022-11-15T01:47:40;26.17;;;17.42;;
52470;SDS011;38382;53.160;7.026;2022-11-15T01:50:10;33.38;;;18.80;;
52470;SDS011;38382;53.160;7.026;2022-11-15T01:52:39;30.65;;;18.63;;
52470;SDS011;38382;53.160;7.026;2022-11-15T01:55:09;28.40;;;18.00;;
52470;SDS011;38382;53.160;7.026;2022-11-15T01:57:39;30.27;;;18.33;;
52470;SDS011;38382;53.160;7.026;2022-11-15T02:00:06;31.45;;;19.13;;
52470;SDS011;38382;53.160;7.026;2022-11-15T02:02:32;31.33;;;18.30;;
52470;SDS011;38382;53.160;7.026;2022-11-15T02:04:59;31.30;;;18.38;;
52470;SDS011;38382;53.160;7.026;2022-11-15T02:07:25;27.20;;;16.80;;
52470;SDS011;38382;53.160;7.026;2022-11-15T02:09:51;30.70;;;18.10;;
52470;SDS011;38382;53.160;7.026;2022-11-15T02:12:18;32.88;;;18.30;;
52470;SDS011;38382;53.160;7.026;2022-11-15T02:14:47;29.33;;;17.13;;
52470;SDS011;38382;53.160;7.026;2022-11-15T02:22:41;31.33;;;17.17;;
52470;SDS011;38382;53.160;7.026;2022-11-15T02:25:46;29.50;;;16.95;;
52470;SDS011;38382;53.160;7.026;2022-11-15T02:28:29;27.80;;;16.30;;
52470;SDS011;38382;53.160;7.026;2022-11-15T02:36:44;33.10;;;18.05;;
52470;SDS011;38382;53.160;7.026;2022-11-15T02:39:15;31.08;;;17.08;;
52470;SDS011;38382;53.160;7.026;2022-11-15T02:42:09;30.05;;;16.63;;
52470;SDS011;38382;53.160;7.026;2022-11-15T02:44:58;29.40;;;16.42;;
52470;SDS011;38382;53.160;7.026;2022-11-15T02:47:30;31.85;;;17.02;;
52470;SDS011;38382;53.160;7.026;2022-11-15T02:50:05;29.90;;;17.13;;
52470;SDS011;38382;53.160;7.026;2022-11-15T02:52:34;30.85;;;16.63;;
52470;SDS011;38382;53.160;7.026;2022-11-15T02:54:59;30.38;;;16.15;;
52470;SDS011;38382;53.160;7.026;2022-11-15T02:57:34;31.30;;;16.98;;
52470;SDS011;38382;53.160;7.026;2022-11-15T03:00:17;30.02;;;16.38;;
52470;SDS011;38382;53.160;7.026;2022-11-15T03:05:29;32.67;;;17.13;;
52470;SDS011;38382;53.160;7.026;2022-11-15T03:16:34;27.05;;;15.65;;
52470;SDS011;38382;53.160;7.026;2022-11-15T03:19:07;31.73;;;17.52;;
52470;SDS011;38382;53.160;7.026;2022-11-15T03:21:51;28.98;;;16.17;;
52470;SDS011;38382;53.160;7.026;2022-11-15T03:24:20;27.13;;;15.60;;
52470;SDS011;38382;53.160;7.026;2022-11-15T03:26:48;32.97;;;16.67;;
52470;SDS011;38382;53.160;7.026;2022-11-15T03:29:17;29.63;;;16.52;;
52470;SDS011;38382;53.160;7.026;2022-11-15T03:32:19;31.10;;;16.02;;
52470;SDS011;38382;53.160;7.026;2022-11-15T03:34:58;27.15;;;15.70;;
52470;SDS011;38382;53.160;7.026;2022-11-15T03:37:38;30.85;;;17.17;;
52470;SDS011;38382;53.160;7.026;2022-11-15T03:40:06;30.13;;;16.92;;
52470;SDS011;38382;53.160;7.026;2022-11-15T03:45:19;30.75;;;16.58;;
52470;SDS011;38382;53.160;7.026;2022-11-15T03:50:46;41.25;;;18.50;;
52470;SDS011;38382;53.160;7.026;2022-11-15T03:53:13;39.90;;;17.65;;
52470;SDS011;38382;53.160;7.026;2022-11-15T03:55:39;35.72;;;18.08;;
52470;SDS011;38382;53.160;7.026;2022-11-15T03:58:04;36.20;;;17.90;;
52470;SDS011;38382;53.160;7.026;2022-11-15T04:00:31;39.60;;;18.08;;
52470;SDS011;38382;53.160;7.026;2022-11-15T04:02:57;37.35;;;18.20;;
52470;SDS011;38382;53.160;7.026;2022-11-15T04:05:23;39.50;;;18.15;;
52470;SDS011;38382;53.160;7.026;2022-11-15T04:07:49;35.83;;;18.00;;
52470;SDS011;38382;53.160;7.026;2022-11-15T04:10:14;37.00;;;17.52;;
52470;SDS011;38382;53.160;7.026;2022-11-15T04:12:41;42.80;;;18.27;;
52470;SDS011;38382;53.160;7.026;2022-11-15T04:15:09;39.30;;;17.98;;
52470;SDS011;38382;53.160;7.026;2022-11-15T04:20:17;33.78;;;16.75;;
52470;SDS011;38382;53.160;7.026;2022-11-15T04:23:06;34.95;;;17.40;;
52470;SDS011;38382;53.160;7.026;2022-11-15T04:25:52;35.70;;;16.15;;
52470;SDS011;38382;53.160;7.026;2022-11-15T04:28:20;40.28;;;17.02;;
52470;SDS011;38382;53.160;7.026;2022-11-15T04:30:46;35.10;;;17.00;;
52470;SDS011;38382;53.160;7.026;2022-11-15T04:33:11;37.58;;;18.80;;
52470;SDS011;38382;53.160;7.026;2022-11-15T04:35:37;38.08;;;18.17;;
52470;SDS011;38382;53.160;7.026;2022-11-15T04:38:04;40.72;;;18.35;;
52470;SDS011;38382;53.160;7.026;2022-11-15T04:40:32;36.90;;;18.15;;
52470;SDS011;38382;53.160;7.026;2022-11-15T04:42:58;38.47;;;18.58;;
52470;SDS011;38382;53.160;7.026;2022-11-15T04:45:24;39.70;;;19.02;;
52470;SDS011;38382;53.160;7.026;2022-11-15T04:47:50;37.92;;;18.52;;
52470;SDS011;38382;53.160;7.026;2022-11-15T04:50:16;38.42;;;20.17;;
52470;SDS011;38382;53.160;7.026;2022-11-15T04:52:42;38.17;;;18.95;;
52470;SDS011;38382;53.160;7.026;2022-11-15T04:55:14;43.13;;;20.08;;
52470;SDS011;38382;53.160;7.026;2022-11-15T04:57:40;41.30;;;19.40;;
52470;SDS011;38382;53.160;7.026;2022-11-15T05:00:07;42.15;;;20.35;;
52470;SDS011;38382;53.160;7.026;2022-11-15T05:02:35;45.55;;;20.92;;
52470;SDS011;38382;53.160;7.026;2022-11-15T05:05:19;44.05;;;20.33;;
52470;SDS011;38382;53.160;7.026;2022-11-15T05:07:45;43.05;;;20.27;;
52470;SDS011;38382;53.160;7.026;2022-11-15T05:10:11;44.88;;;19.73;;
52470;SDS011;38382;53.160;7.026;2022-11-15T05:12:36;41.45;;;20.40;;
52470;SDS011;38382;53.160;7.026;2022-11-15T05:15:02;41.78;;;20.27;;
52470;SDS011;38382;53.160;7.026;2022-11-15T05:17:28;47.72;;;21.48;;
52470;SDS011;38382;53.160;7.026;2022-11-15T05:19:54;44.72;;;21.30;;
52470;SDS011;38382;53.160;7.026;2022-11-15T05:22:20;49.03;;;22.50;;
52470;SDS011;38382;53.160;7.026;2022-11-15T05:24:46;45.72;;;22.02;;
52470;SDS011;38382;53.160;7.026;2022-11-15T05:27:12;49.08;;;21.25;;
52470;SDS011;38382;53.160;7.026;2022-11-15T05:29:37;50.78;;;21.63;;
52470;SDS011;38382;53.160;7.026;2022-11-15T05:32:04;50.90;;;22.73;;
52470;SDS011;38382;53.160;7.026;2022-11-15T05:34:31;49.35;;;21.65;;
52470;SDS011;38382;53.160;7.026;2022-11-15T05:36:57;52.70;;;22.45;;
52470;SDS011;38382;53.160;7.026;2022-11-15T05:39:24;42.55;;;21.13;;
52470;SDS011;38382;53.160;7.026;2022-11-15T05:41:52;43.85;;;21.88;;
52470;SDS011;38382;53.160;7.026;2022-11-15T05:44:22;46.30;;;21.23;;
52470;SDS011;38382;53.160;7.026;2022-11-15T05:46:49;56.83;;;23.42;;
52470;SDS011;38382;53.160;7.026;2022-11-15T05:49:20;58.58;;;24.77;;
52470;SDS011;38382;53.160;7.026;2022-11-15T05:51:49;56.38;;;24.23;;
52470;SDS011;38382;53.160;7.026;2022-11-15T05:54:18;61.05;;;23.17;;
52470;SDS011;38382;53.160;7.026;2022-11-15T05:56:46;64.78;;;25.27;;
52470;SDS011;38382;53.160;7.026;2022-11-15T05:59:12;61.38;;;24.73;;
52470;SDS011;38382;53.160;7.026;2022-11-15T06:01:38;57.05;;;24.50;;
52470;SDS011;38382;53.160;7.026;2022-11-15T06:04:04;57.33;;;25.85;;
52470;SDS011;38382;53.160;7.026;2022-11-15T06:06:30;60.70;;;26.02;;
52470;SDS011;38382;53.160;7.026;2022-11-15T06:08:56;59.67;;;26.33;;
52470;SDS011;38382;53.160;7.026;2022-11-15T06:11:21;68.57;;;25.45;;
52470;SDS011;38382;53.160;7.026;2022-11-15T06:13:47;68.20;;;25.35;;
52470;SDS011;38382;53.160;7.026;2022-11-15T06:16:13;58.33;;;25.55;;
52470;SDS011;38382;53.160;7.026;2022-11-15T06:18:39;57.50;;;24.27;;
52470;SDS011;38382;53.160;7.026;2022-11-15T06:21:06;55.00;;;25.08;;
52470;SDS011;38382;53.160;7.026;2022-11-15T06:23:32;50.75;;;23.00;;
52470;SDS011;38382;53.160;7.026;2022-11-15T06:25:59;60.83;;;24.17;;
52470;SDS011;38382;53.160;7.026;2022-11-15T06:28:28;55.60;;;23.23;;
52470;SDS011;38382;53.160;7.026;2022-11-15T06:30:55;50.53;;;21.70;;
52470;SDS011;38382;53.160;7.026;2022-11-15T06:33:21;49.10;;;23.48;;
52470;SDS011;38382;53.160;7.026;2022-11-15T06:35:47;47.58;;;22.52;;
52470;SDS011;38382;53.160;7.026;2022-11-15T06:38:12;50.58;;;22.17;;
52470;SDS011;38382;53.160;7.026;2022-11-15T06:40:38;49.70;;;21.60;;
52470;SDS011;38382;53.160;7.026;2022-11-15T06:43:05;46.35;;;21.88;;
52470;SDS011;38382;53.160;7.026;2022-11-15T06:45:31;44.80;;;21.25;;
52470;SDS011;38382;53.160;7.026;2022-11-15T06:47:58;45.28;;;21.30;;
52470;SDS011;38382;53.160;7.026;2022-11-15T06:50:24;41.78;;;21.08;;
52470;SDS011;38382;53.160;7.026;2022-11-15T06:52:50;42.10;;;20.27;;
52470;SDS011;38382;53.160;7.026;2022-11-15T06:55:15;36.83;;;20.52;;
52470;SDS011;38382;53.160;7.026;2022-11-15T06:57:51;40.53;;;20.08;;
52470;SDS011;38382;53.160;7.026;2022-11-15T07:00:18;40.65;;;20.38;;
52470;SDS011;38382;53.160;7.026;2022-11-15T07:02:45;39.55;;;21.40;;
52470;SDS011;38382;53.160;7.026;2022-11-15T07:05:11;40.30;;;20.55;;
52470;SDS011;38382;53.160;7.026;2022-11-15T07:07:38;37.47;;;19.88;;
52470;SDS011;38382;53.160;7.026;2022-11-15T07:10:04;38.95;;;19.58;;
52470;SDS011;38382;53.160;7.026;2022-11-15T07:12:30;42.58;;;20.35;;
52470;SDS011;38382;53.160;7.026;2022-11-15T07:14:56;37.95;;;19.60;;
52470;SDS011;38382;53.160;7.026;2022-11-15T07:17:22;38.50;;;19.23;;
52470;SDS011;38382;53.160;7.026;2022-11-15T07:19:47;33.15;;;18.10;;
52470;SDS011;38382;53.160;7.026;2022-11-15T07:22:13;39.10;;;20.08;;
52470;SDS011;38382;53.160;7.026;2022-11-15T07:24:39;36.03;;;19.35;;
52470;SDS011;38382;53.160;7.026;2022-11-15T07:27:04;36.10;;;18.85;;
52470;SDS011;38382;53.160;7.026;2022-11-15T07:29:30;33.05;;;18.48;;
52470;SDS011;38382;53.160;7.026;2022-11-15T07:31:56;33.20;;;18.38;;
52470;SDS011;38382;53.160;7.026;2022-11-15T07:34:21;32.90;;;18.63;;
52470;SDS011;38382;53.160;7.026;2022-11-15T07:36:48;30.00;;;17.92;;
52470;SDS011;38382;53.160;7.026;2022-11-15T07:39:14;35.75;;;19.55;;
52470;SDS011;38382;53.160;7.026;2022-11-15T07:41:40;35.55;;;18.83;;
52470;SDS011;38382;53.160;7.026;2022-11-15T07:44:06;30.55;;;17.23;;
52470;SDS011;38382;53.160;7.026;2022-11-15T07:46:32;32.38;;;18.00;;
52470;SDS011;38382;53.160;7.026;2022-11-15T07:48:57;33.35;;;17.55;;
52470;SDS011;38382;53.160;7.026;2022-11-15T07:51:23;29.00;;;16.92;;
52470;SDS011;38382;53.160;7.026;2022-11-15T07:53:49;29.67;;;17.77;;
52470;SDS011;38382;53.160;7.026;2022-11-15T07:56:15;31.77;;;17.67;;
52470;SDS011;38382;53.160;7.026;2022-11-15T07:58:41;31.30;;;16.80;;
52470;SDS011;38382;53.160;7.026;2022-11-15T08:01:07;29.27;;;17.15;;
52470;SDS011;38382;53.160;7.026;2022-11-15T08:03:34;30.38;;;17.10;;
52470;SDS011;38382;53.160;7.026;2022-11-15T08:06:01;32.70;;;17.83;;
52470;SDS011;38382;53.160;7.026;2022-11-15T08:08:27;30.83;;;16.73;;
52470;SDS011;38382;53.160;7.026;2022-11-15T08:10:53;29.70;;;17.50;;
52470;SDS011;38382;53.160;7.026;2022-11-15T08:13:18;30.40;;;17.50;;
52470;SDS011;38382;53.160;7.026;2022-11-15T08:15:44;34.60;;;18.17;;
52470;SDS011;38382;53.160;7.026;2022-11-15T08:18:14;28.60;;;16.58;;
52470;SDS011;38382;53.160;7.026;2022-11-15T08:20:41;27.67;;;16.15;;
52470;SDS011;38382;53.160;7.026;2022-11-15T08:23:08;26.90;;;16.52;;
52470;SDS011;38382;53.160;7.026;2022-11-15T08:25:36;27.83;;;16.33;;
52470;SDS011;38382;53.160;7.026;2022-11-15T08:28:03;26.42;;;16.60;;
52470;SDS011;38382;53.160;7.026;2022-11-15T08:30:33;29.35;;;16.48;;
52470;SDS011;38382;53.160;7.026;2022-11-15T08:33:02;27.38;;;16.02;;
52470;SDS011;38382;53.160;7.026;2022-11-15T08:35:28;25.80;;;15.65;;
52470;SDS011;38382;53.160;7.026;2022-11-15T08:37:54;30.13;;;17.20;;
52470;SDS011;38382;53.160;7.026;2022-11-15T08:40:20;25.15;;;16.23;;
52470;SDS011;38382;53.160;7.026;2022-11-15T08:42:46;26.30;;;16.52;;
52470;SDS011;38382;53.160;7.026;2022-11-15T08:45:12;25.35;;;15.57;;
52470;SDS011;38382;53.160;7.026;2022-11-15T08:47:38;29.20;;;16.45;;
52470;SDS011;38382;53.160;7.026;2022-11-15T08:50:04;24.52;;;15.35;;
52470;SDS011;38382;53.160;7.026;2022-11-15T08:52:33;27.98;;;16.60;;
52470;SDS011;38382;53.160;7.026;2022-11-15T08:54:58;26.25;;;15.98;;
52470;SDS011;38382;53.160;7.026;2022-11-15T08:57:24;28.90;;;15.93;;
52470;SDS011;38382;53.160;7.026;2022-11-15T08:59:54;25.95;;;16.35;;
52470;SDS011;38382;53.160;7.026;2022-11-15T09:02:19;26.75;;;16.17;;
52470;SDS011;38382;53.160;7.026;2022-11-15T09:04:45;25.85;;;16.45;;
52470;SDS011;38382;53.160;7.026;2022-11-15T09:07:11;27.80;;;17.00;;
52470;SDS011;38382;53.160;7.026;2022-11-15T09:09:38;27.25;;;16.63;;
52470;SDS011;38382;53.160;7.026;2022-11-15T09:12:04;26.08;;;16.63;;
52470;SDS011;38382;53.160;7.026;2022-11-15T09:14:31;27.77;;;16.92;;
52470;SDS011;38382;53.160;7.026;2022-11-15T09:16:57;26.10;;;17.25;;
52470;SDS011;38382;53.160;7.026;2022-11-15T09:19:23;30.40;;;17.70;;
52470;SDS011;38382;53.160;7.026;2022-11-15T09:21:49;27.85;;;18.15;;
52470;SDS011;38382;53.160;7.026;2022-11-15T09:24:15;25.48;;;16.63;;
52470;SDS011;38382;53.160;7.026;2022-11-15T09:26:42;29.98;;;17.42;;
52470;SDS011;38382;53.160;7.026;2022-11-15T09:29:07;31.08;;;17.42;;
52470;SDS011;38382;53.160;7.026;2022-11-15T09:31:33;29.30;;;18.40;;
52470;SDS011;38382;53.160;7.026;2022-11-15T09:33:59;26.17;;;18.23;;
52470;SDS011;38382;53.160;7.026;2022-11-15T09:36:25;32.58;;;19.30;;
52470;SDS011;38382;53.160;7.026;2022-11-15T09:38:50;34.10;;;19.08;;
52470;SDS011;38382;53.160;7.026;2022-11-15T09:49:30;32.33;;;18.00;;
52470;SDS011;38382;53.160;7.026;2022-11-15T09:51:57;27.92;;;17.90;;
52470;SDS011;38382;53.160;7.026;2022-11-15T09:54:28;26.50;;;16.48;;
52470;SDS011;38382;53.160;7.026;2022-11-15T10:05:21;24.70;;;16.13;;
52470;SDS011;38382;53.160;7.026;2022-11-15T10:10:49;29.08;;;16.90;;
52470;SDS011;38382;53.160;7.026;2022-11-15T10:14:04;26.85;;;17.10;;
52470;SDS011;38382;53.160;7.026;2022-11-15T10:24:11;21.63;;;15.18;;
52470;SDS011;38382;53.160;7.026;2022-11-15T10:26:47;24.85;;;15.65;;
52470;SDS011;38382;53.160;7.026;2022-11-15T10:29:17;24.13;;;16.08;;
52470;SDS011;38382;53.160;7.026;2022-11-15T10:31:44;23.10;;;15.20;;
52470;SDS011;38382;53.160;7.026;2022-11-15T10:34:12;21.50;;;15.52;;
52470;SDS011;38382;53.160;7.026;2022-11-15T10:36:38;22.17;;;16.05;;
52470;SDS011;38382;53.160;7.026;2022-11-15T10:39:20;22.52;;;15.10;;
52470;SDS011;38382;53.160;7.026;2022-11-15T10:41:46;24.58;;;15.75;;
52470;SDS011;38382;53.160;7.026;2022-11-15T10:46:38;23.15;;;14.95;;
52470;SDS011;38382;53.160;7.026;2022-11-15T10:49:19;21.25;;;14.95;;
52470;SDS011;38382;53.160;7.026;2022-11-15T10:51:53;24.02;;;15.40;;
52470;SDS011;38382;53.160;7.026;2022-11-15T10:54:23;23.27;;;15.35;;
52470;SDS011;38382;53.160;7.026;2022-11-15T10:57:54;21.40;;;15.27;;
52470;SDS011;38382;53.160;7.026;2022-11-15T11:00:06;24.95;;;14.93;;
52470;SDS011;38382;53.160;7.026;2022-11-15T11:02:36;22.58;;;14.18;;
52470;SDS011;38382;53.160;7.026;2022-11-15T11:08:01;19.90;;;13.95;;
52470;SDS011;38382;53.160;7.026;2022-11-15T11:10:36;17.98;;;12.88;;
52470;SDS011;38382;53.160;7.026;2022-11-15T11:13:15;17.75;;;13.27;;
52470;SDS011;38382;53.160;7.026;2022-11-15T11:15:49;18.55;;;12.95;;
52470;SDS011;38382;53.160;7.026;2022-11-15T11:18:35;19.02;;;13.13;;
52470;SDS011;38382;53.160;7.026;2022-11-15T11:21:03;18.60;;;12.90;;
52470;SDS011;38382;53.160;7.026;2022-11-15T11:23:45;20.02;;;13.15;;
52470;SDS011;38382;53.160;7.026;2022-11-15T11:32:34;20.08;;;13.27;;
52470;SDS011;38382;53.160;7.026;2022-11-15T11:35:53;20.35;;;13.38;;
52470;SDS011;38382;53.160;7.026;2022-11-15T11:46:10;16.83;;;12.90;;
52470;SDS011;38382;53.160;7.026;2022-11-15T11:49:10;19.08;;;12.82;;
52470;SDS011;38382;53.160;7.026;2022-11-15T11:51:46;17.10;;;12.90;;
52470;SDS011;38382;53.160;7.026;2022-11-15T11:54:23;17.35;;;12.98;;
52470;SDS011;38382;53.160;7.026;2022-11-15T11:56:56;18.40;;;12.75;;
52470;SDS011;38382;53.160;7.026;2022-11-15T11:59:39;17.40;;;12.43;;
52470;SDS011;38382;53.160;7.026;2022-11-15T12:02:12;16.08;;;12.48;;
52470;SDS011;38382;53.160;7.026;2022-11-15T12:05:05;17.35;;;12.82;;
52470;SDS011;38382;53.160;7.026;2022-11-15T12:07:53;17.23;;;11.73;;
52470;SDS011;38382;53.160;7.026;2022-11-15T12:10:24;14.38;;;10.43;;
52470;SDS011;38382;53.160;7.026;2022-11-15T12:13:08;12.77;;;9.85;;
52470;SDS011;38382;53.160;7.026;2022-11-15T12:15:56;13.30;;;9.65;;
52470;SDS011;38382;53.160;7.026;2022-11-15T12:18:36;12.55;;;8.77;;
52470;SDS011;38382;53.160;7.026;2022-11-15T12:21:49;11.40;;;7.82;;
52470;SDS011;38382;53.160;7.026;2022-11-15T12:24:19;11.00;;;7.90;;
52470;SDS011;38382;53.160;7.026;2022-11-15T12:27:06;9.15;;;7.13;;
52470;SDS011;38382;53.160;7.026;2022-11-15T12:29:46;12.13;;;7.05;;
52470;SDS011;38382;53.160;7.026;2022-11-15T12:32:33;9.98;;;6.55;;
52470;SDS011;38382;53.160;7.026;2022-11-15T12:35:01;9.15;;;6.13;;
52470;SDS011;38382;53.160;7.026;2022-11-15T12:42:41;9.95;;;6.38;;
52470;SDS011;38382;53.160;7.026;2022-11-15T12:45:32;9.98;;;6.40;;
52470;SDS011;38382;53.160;7.026;2022-11-15T13:06:50;7.47;;;4.28;;
52470;SDS011;38382;53.160;7.026;2022-11-15T13:12:10;8.55;;;4.38;;
52470;SDS011;38382;53.160;7.026;2022-11-15T13:17:49;8.25;;;4.00;;
52470;SDS011;38382;53.160;7.026;2022-11-15T13:20:29;7.25;;;4.40;;
52470;SDS011;38382;53.160;7.026;2022-11-15T13:28:39;7.30;;;4.38;;
52470;SDS011;38382;53.160;7.026;2022-11-15T13:33:53;8.52;;;4.03;;
52470;SDS011;38382;53.160;7.026;2022-11-15T13:36:23;7.03;;;3.92;;
52470;SDS011;38382;53.160;7.026;2022-11-15T13:38:59;7.65;;;4.00;;
52470;SDS011;38382;53.160;7.026;2022-11-15T13:41:33;7.10;;;4.00;;
52470;SDS011;38382;53.160;7.026;2022-11-15T13:44:25;7.13;;;3.95;;
52470;SDS011;38382;53.160;7.026;2022-11-15T13:47:01;7.80;;;4.15;;
52470;SDS011;38382;53.160;7.026;2022-11-15T13:49:42;6.28;;;3.80;;
52470;SDS011;38382;53.160;7.026;2022-11-15T13:52:09;7.78;;;4.13;;
52470;SDS011;38382;53.160;7.026;2022-11-15T13:54:47;8.97;;;4.13;;
52470;SDS011;38382;53.160;7.026;2022-11-15T13:57:23;6.93;;;4.03;;
52470;SDS011;38382;53.160;7.026;2022-11-15T14:00:04;7.97;;;4.05;;
52470;SDS011;38382;53.160;7.026;2022-11-15T14:02:32;9.20;;;3.40;;
52470;SDS011;38382;53.160;7.026;2022-11-15T14:07:37;8.23;;;3.58;;
52470;SDS011;38382;53.160;7.026;2022-11-15T14:10:17;7.35;;;3.30;;
52470;SDS011;38382;53.160;7.026;2022-11-15T14:12:50;6.28;;;3.20;;
52470;SDS011;38382;53.160;7.026;2022-11-15T14:15:27;5.28;;;3.10;;
52470;SDS011;38382;53.160;7.026;2022-11-15T14:17:56;6.13;;;3.30;;
52470;SDS011;38382;53.160;7.026;2022-11-15T14:22:57;9.18;;;3.22;;
52470;SDS011;38382;53.160;7.026;2022-11-15T14:25:31;5.68;;;3.30;;
52470;SDS011;38382;53.160;7.026;2022-11-15T14:30:38;7.15;;;3.58;;
52470;SDS011;38382;53.160;7.026;2022-11-15T14:36:15;4.85;;;3.08;;
52470;SDS011;38382;53.160;7.026;2022-11-15T14:38:43;6.95;;;3.03;;
52470;SDS011;38382;53.160;7.026;2022-11-15T14:41:11;9.07;;;3.10;;
52470;SDS011;38382;53.160;7.026;2022-11-15T14:43:42;5.78;;;3.03;;
52470;SDS011;38382;53.160;7.026;2022-11-15T14:46:08;5.65;;;3.63;;
52470;SDS011;38382;53.160;7.026;2022-11-15T14:48:34;8.15;;;3.60;;
52470;SDS011;38382;53.160;7.026;2022-11-15T14:50:59;5.90;;;3.08;;
52470;SDS011;38382;53.160;7.026;2022-11-15T14:53:25;5.70;;;3.13;;
52470;SDS011;38382;53.160;7.026;2022-11-15T14:55:51;6.78;;;3.50;;
52470;SDS011;38382;53.160;7.026;2022-11-15T14:58:17;7.70;;;3.50;;
52470;SDS011;38382;53.160;7.026;2022-11-15T15:00:43;5.20;;;3.20;;
52470;SDS011;38382;53.160;7.026;2022-11-15T15:03:09;5.32;;;3.05;;
52470;SDS011;38382;53.160;7.026;2022-11-15T15:05:36;5.50;;;3.58;;
52470;SDS011;38382;53.160;7.026;2022-11-15T15:08:04;6.60;;;3.65;;
52470;SDS011;38382;53.160;7.026;2022-11-15T15:10:32;8.75;;;3.67;;
52470;SDS011;38382;53.160;7.026;2022-11-15T15:12:59;7.28;;;3.17;;
52470;SDS011;38382;53.160;7.026;2022-11-15T15:15:26;6.15;;;3.30;;
52470;SDS011;38382;53.160;7.026;2022-11-15T15:17:58;5.88;;;3.30;;
52470;SDS011;38382;53.160;7.026;2022-11-15T15:20:24;7.93;;;3.40;;
52470;SDS011;38382;53.160;7.026;2022-11-15T15:22:50;6.75;;;3.53;;
52470;SDS011;38382;53.160;7.026;2022-11-15T15:25:19;4.95;;;3.10;;
52470;SDS011;38382;53.160;7.026;2022-11-15T15:27:47;5.15;;;3.22;;
52470;SDS011;38382;53.160;7.026;2022-11-15T15:30:14;5.88;;;3.10;;
52470;SDS011;38382;53.160;7.026;2022-11-15T15:32:39;5.90;;;3.28;;
52470;SDS011;38382;53.160;7.026;2022-11-15T15:35:05;6.05;;;3.05;;
52470;SDS011;38382;53.160;7.026;2022-11-15T15:37:35;4.00;;;3.08;;
52470;SDS011;38382;53.160;7.026;2022-11-15T15:40:01;4.95;;;3.30;;
52470;SDS011;38382;53.160;7.026;2022-11-15T15:42:26;6.75;;;3.72;;
52470;SDS011;38382;53.160;7.026;2022-11-15T15:44:52;7.13;;;3.83;;
52470;SDS011;38382;53.160;7.026;2022-11-15T15:47:19;6.45;;;3.80;;
52470;SDS011;38382;53.160;7.026;2022-11-15T15:49:46;6.47;;;3.95;;
52470;SDS011;38382;53.160;7.026;2022-11-15T15:52:13;5.43;;;3.90;;
52470;SDS011;38382;53.160;7.026;2022-11-15T15:54:39;6.60;;;3.90;;
52470;SDS011;38382;53.160;7.026;2022-11-15T15:57:06;5.93;;;3.72;;
52470;SDS011;38382;53.160;7.026;2022-11-15T15:59:33;7.35;;;3.65;;
52470;SDS011;38382;53.160;7.026;2022-11-15T16:01:58;5.18;;;3.25;;
52470;SDS011;38382;53.160;7.026;2022-11-15T16:04:25;5.30;;;3.92;;
52470;SDS011;38382;53.160;7.026;2022-11-15T16:06:51;4.97;;;3.85;;
52470;SDS011;38382;53.160;7.026;2022-11-15T16:09:20;7.43;;;4.30;;
52470;SDS011;38382;53.160;7.026;2022-11-15T16:12:05;6.00;;;4.15;;
52470;SDS011;38382;53.160;7.026;2022-11-15T16:14:31;4.85;;;4.00;;
52470;SDS011;38382;53.160;7.026;2022-11-15T16:16:57;5.18;;;4.10;;
52470;SDS011;38382;53.160;7.026;2022-11-15T16:19:23;5.32;;;3.58;;
52470;SDS011;38382;53.160;7.026;2022-11-15T16:21:49;5.03;;;3.90;;
52470;SDS011;38382;53.160;7.026;2022-11-15T16:24:17;5.45;;;3.80;;
52470;SDS011;38382;53.160;7.026;2022-11-15T16:26:43;4.95;;;3.80;;
52470;SDS011;38382;53.160;7.026;2022-11-15T16:29:10;6.30;;;3.92;;
52470;SDS011;38382;53.160;7.026;2022-11-15T16:31:36;5.97;;;4.05;;
52470;SDS011;38382;53.160;7.026;2022-11-15T16:34:02;5.43;;;3.92;;
52470;SDS011;38382;53.160;7.026;2022-11-15T16:36:30;5.25;;;4.03;;
52470;SDS011;38382;53.160;7.026;2022-11-15T16:38:58;6.72;;;4.75;;
52470;SDS011;38382;53.160;7.026;2022-11-15T16:43:52;6.60;;;4.30;;
52470;SDS011;38382;53.160;7.026;2022-11-15T16:46:19;5.47;;;4.20;;
52470;SDS011;38382;53.160;7.026;2022-11-15T16:48:47;5.47;;;3.88;;
52470;SDS011;38382;53.160;7.026;2022-11-15T16:51:13;6.20;;;4.25;;